createdAt,value
2018-11-20T00:01:14.641Z,29.60
2018-11-20T00:04:22.027Z,30.10
2018-11-20T00:07:29.301Z,29.40
2018-11-20T00:10:36.538Z,29.50
2018-11-20T00:13:35.350Z,29.60
2018-11-20T00:16:42.616Z,29.90
2018-11-20T00:19:49.883Z,29.20
2018-11-20T00:22:55.745Z,29.60
2018-11-20T00:26:02.980Z,29.60
2018-11-20T00:29:10.249Z,29.20
2018-11-20T00:32:08.451Z,29.30
2018-11-20T00:35:15.670Z,30.00
2018-11-20T00:38:18.865Z,29.70
2018-11-20T00:41:26.114Z,29.80
2018-11-20T00:44:14.469Z,30.00
2018-11-20T00:47:21.726Z,29.90
2018-11-20T00:50:28.996Z,29.60
2018-11-20T00:53:36.272Z,30.10
2018-11-20T00:57:02.496Z,30.20
2018-11-20T01:00:09.822Z,30.00
2018-11-20T01:03:17.071Z,30.00
2018-11-20T01:06:13.358Z,30.00
2018-11-20T01:09:20.652Z,29.90
2018-11-20T01:12:27.898Z,29.90
2018-11-20T01:15:23.528Z,30.60
2018-11-20T01:18:11.916Z,30.40
2018-11-20T01:21:19.166Z,30.20
2018-11-20T01:24:26.577Z,30.30
2018-11-20T01:27:36.427Z,30.40
2018-11-20T01:30:43.780Z,30.30
2018-11-20T01:33:43.046Z,29.90
2018-11-20T01:36:50.961Z,29.90
2018-11-20T01:39:58.214Z,29.80
2018-11-20T01:43:05.451Z,29.80
2018-11-20T01:46:12.719Z,30.30
2018-11-20T01:49:19.984Z,30.00
2018-11-20T01:52:27.218Z,30.10
2018-11-20T01:55:34.484Z,30.00
2018-11-20T01:58:41.779Z,29.90
2018-11-20T02:01:49.167Z,29.60
2018-11-20T02:04:56.665Z,29.40
2018-11-20T02:07:55.944Z,29.60
2018-11-20T02:11:03.227Z,29.60
2018-11-20T02:14:11.954Z,29.80
2018-11-20T02:17:23.681Z,30.10
2018-11-20T02:20:30.945Z,30.20
2018-11-20T02:23:30.922Z,30.00
2018-11-20T02:26:38.189Z,29.50
2018-11-20T02:29:45.513Z,29.50
2018-11-20T02:32:52.918Z,29.80
2018-11-20T02:36:00.187Z,29.70
2018-11-20T02:39:07.446Z,30.10
2018-11-20T02:42:14.727Z,30.20
2018-11-20T02:48:21.103Z,29.00
2018-11-20T02:51:09.676Z,29.70
2018-11-20T02:54:16.981Z,29.80
2018-11-20T02:57:24.249Z,29.60
2018-11-20T03:00:20.407Z,29.60
2018-11-20T03:03:27.728Z,30.00
2018-11-20T03:06:34.952Z,30.00
2018-11-20T03:09:42.166Z,29.80
2018-11-20T03:12:49.708Z,29.90
2018-11-20T03:15:56.971Z,29.70
2018-11-20T03:19:04.326Z,30.00
2018-11-20T03:22:11.592Z,29.40
2018-11-20T03:25:18.851Z,29.40
2018-11-20T03:28:26.105Z,29.20
2018-11-20T03:31:33.445Z,29.70
2018-11-20T03:34:40.695Z,29.90
2018-11-20T03:37:47.967Z,29.60
2018-11-20T03:40:55.197Z,29.90
2018-11-20T03:44:02.492Z,29.60
2018-11-20T03:47:09.838Z,29.70
2018-11-20T03:50:17.070Z,29.80
2018-11-20T03:53:24.789Z,29.90
2018-11-20T03:56:32.108Z,30.40
2018-11-20T03:59:39.381Z,30.20
2018-11-20T04:02:46.895Z,30.30
2018-11-20T04:05:54.135Z,30.70
2018-11-20T04:09:01.488Z,30.40
2018-11-20T04:12:08.701Z,30.50
2018-11-20T04:15:15.961Z,30.30
2018-11-20T04:18:19.878Z,30.00
2018-11-20T04:21:27.139Z,30.20
2018-11-20T04:24:34.411Z,30.00
2018-11-20T04:27:41.660Z,29.90
2018-11-20T04:31:07.950Z,30.00
2018-11-20T04:34:15.277Z,30.10
2018-11-20T04:37:22.896Z,29.90
2018-11-20T04:40:23.049Z,30.00
2018-11-20T04:43:22.864Z,29.80
2018-11-20T04:46:22.434Z,30.00
2018-11-20T04:49:22.079Z,30.00
2018-11-20T04:52:22.143Z,30.30
2018-11-20T04:55:18.222Z,30.00
2018-11-20T04:58:06.459Z,30.10
2018-11-20T05:01:13.727Z,30.80
2018-11-20T05:04:20.968Z,30.10
2018-11-20T05:07:28.252Z,30.50
2018-11-20T05:10:35.526Z,30.00
2018-11-20T05:13:42.775Z,30.30
2018-11-20T05:16:50.030Z,30.20
2018-11-20T05:19:50.297Z,30.60
2018-11-20T05:22:57.587Z,30.60
2018-11-20T05:26:04.854Z,30.60
2018-11-20T05:29:12.104Z,30.00
2018-11-20T05:32:00.361Z,30.00
2018-11-20T05:35:07.617Z,30.40
2018-11-20T05:38:11.019Z,30.30
2018-11-20T05:41:18.293Z,29.90
2018-11-20T05:44:25.532Z,30.00
2018-11-20T05:47:32.815Z,30.00
2018-11-20T05:50:40.050Z,30.10
2018-11-20T05:53:47.303Z,29.90
2018-11-20T06:00:01.898Z,29.80
2018-11-20T06:03:00.661Z,29.80
2018-11-20T06:05:58.928Z,29.90
2018-11-20T06:09:06.242Z,30.70
2018-11-20T06:12:13.526Z,30.30
2018-11-20T06:15:20.806Z,30.90
2018-11-20T06:18:28.117Z,31.20
2018-11-20T06:21:35.597Z,31.20
2018-11-20T06:24:42.861Z,31.40
2018-11-20T06:27:41.890Z,31.10
2018-11-20T06:30:49.200Z,30.80
2018-11-20T06:33:56.455Z,30.50
2018-11-20T06:40:18.451Z,30.60
2018-11-20T06:43:25.708Z,30.00
2018-11-20T06:46:33.022Z,30.50
2018-11-20T06:49:40.273Z,30.60
2018-11-20T06:52:47.544Z,31.00
2018-11-20T06:55:55.193Z,30.80
2018-11-20T06:59:02.477Z,30.60
2018-11-20T07:02:09.720Z,30.70
2018-11-20T07:05:17.129Z,30.20
2018-11-20T07:08:24.515Z,30.60
2018-11-20T07:11:31.776Z,31.40
2018-11-20T07:14:40.214Z,30.80
2018-11-20T07:17:47.474Z,31.30
2018-11-20T07:20:54.730Z,30.80
2018-11-20T07:23:55.035Z,31.00
2018-11-20T07:27:02.300Z,30.90
2018-11-20T07:30:09.616Z,31.60
2018-11-20T07:33:16.876Z,31.80
2018-11-20T07:36:24.289Z,31.70
2018-11-20T07:42:38.312Z,30.20
2018-11-20T07:45:45.588Z,30.90
2018-11-20T07:48:52.873Z,31.30
2018-11-20T07:52:00.164Z,31.30
2018-11-20T07:55:07.540Z,31.10
2018-11-20T07:58:14.729Z,30.80
2018-11-20T08:01:22.064Z,31.40
2018-11-20T08:04:23.903Z,31.60
2018-11-20T08:07:23.196Z,30.80
2018-11-20T08:10:30.503Z,31.00
2018-11-20T08:13:37.824Z,31.40
2018-11-20T08:16:45.079Z,32.40
2018-11-20T08:19:52.357Z,31.50
2018-11-20T08:22:59.700Z,31.70
2018-11-20T08:26:07.163Z,31.80
2018-11-20T08:29:14.255Z,31.80
2018-11-20T08:32:21.527Z,31.60
2018-11-20T08:35:28.843Z,31.30
2018-11-20T08:38:36.412Z,31.00
2018-11-20T08:41:43.763Z,31.10
2018-11-20T08:44:51.010Z,31.50
2018-11-20T08:47:51.238Z,31.20
2018-11-20T08:50:58.622Z,31.60
2018-11-20T08:54:05.910Z,32.10
2018-11-20T08:57:13.168Z,32.50
2018-11-20T09:00:09.235Z,31.90
2018-11-20T09:03:16.609Z,32.10
2018-11-20T09:06:23.779Z,31.70
2018-11-20T09:09:31.069Z,32.30
2018-11-20T09:12:38.381Z,32.20
2018-11-20T09:15:45.755Z,32.60
2018-11-20T09:18:44.957Z,32.60
2018-11-20T09:21:52.267Z,32.60
2018-11-20T09:24:59.881Z,31.90
2018-11-20T09:28:07.424Z,32.00
2018-11-20T09:31:14.622Z,31.60
2018-11-20T09:34:21.923Z,30.90
2018-11-20T09:37:29.227Z,31.40
2018-11-20T09:40:55.444Z,32.20
2018-11-20T09:44:03.967Z,32.50
2018-11-20T09:47:11.256Z,32.10
2018-11-20T09:50:18.598Z,32.40
2018-11-20T09:53:25.889Z,31.70
2018-11-20T09:56:33.134Z,30.90
2018-11-20T09:59:40.582Z,31.70
2018-11-20T10:02:47.876Z,30.80
2018-11-20T10:05:55.145Z,30.70
2018-11-20T10:09:02.437Z,30.50
2018-11-20T10:12:09.746Z,30.30
2018-11-20T10:15:17.085Z,30.70
2018-11-20T10:18:24.290Z,30.50
2018-11-20T10:21:31.549Z,30.80
2018-11-20T10:24:38.862Z,31.00
2018-11-20T10:27:42.434Z,30.90
2018-11-20T10:30:49.700Z,31.50
2018-11-20T10:33:57.012Z,30.80
2018-11-20T10:37:04.254Z,31.10
2018-11-20T10:40:11.589Z,30.90
2018-11-20T10:43:18.951Z,30.50
2018-11-20T10:46:26.233Z,30.10
2018-11-20T10:49:33.568Z,30.30
2018-11-20T10:52:40.895Z,30.50
2018-11-20T10:55:48.112Z,30.70
2018-11-20T10:58:55.384Z,30.90
2018-11-20T11:02:02.709Z,30.80
2018-11-20T11:05:10.081Z,31.70
2018-11-20T11:08:17.343Z,31.70
2018-11-20T11:11:24.848Z,31.30
2018-11-20T11:14:32.143Z,32.00
2018-11-20T11:17:39.348Z,31.30
2018-11-20T11:20:34.852Z,32.00
2018-11-20T11:23:42.107Z,31.60
2018-11-20T11:26:49.355Z,31.20
2018-11-20T11:29:56.697Z,31.40
2018-11-20T11:33:03.938Z,31.00
2018-11-20T11:36:11.450Z,30.70
2018-11-20T11:39:18.765Z,30.50
2018-11-20T11:42:26.025Z,30.80
2018-11-20T11:45:33.383Z,31.10
2018-11-20T11:48:40.717Z,31.10
2018-11-20T11:51:47.939Z,30.90
2018-11-20T11:54:55.302Z,31.90
2018-11-20T11:58:02.552Z,31.50
2018-11-20T12:04:31.222Z,31.10
2018-11-20T12:07:38.449Z,31.20
2018-11-20T12:10:45.711Z,31.30
2018-11-20T12:13:52.971Z,31.80
2018-11-20T12:16:41.299Z,31.50
2018-11-20T12:19:48.885Z,31.70
2018-11-20T12:22:56.140Z,32.00
2018-11-20T12:26:03.405Z,31.90
2018-11-20T12:29:10.753Z,31.70
2018-11-20T12:32:17.978Z,31.70
2018-11-20T12:35:33.180Z,31.50
2018-11-20T12:38:32.625Z,31.20
2018-11-20T12:41:39.871Z,31.20
2018-11-20T12:44:47.141Z,31.30
2018-11-20T12:47:54.381Z,31.20
2018-11-20T12:51:01.653Z,31.40
2018-11-20T12:54:08.906Z,30.80
2018-11-20T12:57:16.400Z,31.40
2018-11-20T13:00:24.156Z,31.60
2018-11-20T13:03:32.916Z,31.70
2018-11-20T13:06:19.711Z,31.50
2018-11-20T13:09:28.375Z,32.00
2018-11-20T13:12:35.665Z,31.70
2018-11-20T13:15:42.942Z,32.00
2018-11-20T13:18:54.174Z,32.90
2018-11-20T13:21:57.515Z,32.70
2018-11-20T13:25:04.901Z,32.40
2018-11-20T13:28:12.135Z,32.60
2018-11-20T13:31:19.424Z,32.30
2018-11-20T13:34:27.210Z,32.60
2018-11-20T13:37:35.628Z,32.20
2018-11-20T13:41:01.336Z,32.50
2018-11-20T13:44:08.572Z,32.40
2018-11-20T13:47:15.846Z,32.30
2018-11-20T13:50:11.806Z,32.00
2018-11-20T13:53:17.231Z,33.00
2018-11-20T13:56:24.758Z,33.00
2018-11-20T13:59:34.871Z,32.70
2018-11-20T14:02:42.948Z,32.90
2018-11-20T14:05:39.278Z,32.90
2018-11-20T14:08:46.551Z,32.60
2018-11-20T14:11:53.844Z,33.00
2018-11-20T14:15:01.069Z,32.80
2018-11-20T14:18:08.364Z,33.10
2018-11-20T14:21:15.596Z,33.20
2018-11-20T14:24:22.882Z,33.10
2018-11-20T14:27:30.178Z,33.00
2018-11-20T14:30:37.430Z,33.00
2018-11-20T14:33:44.719Z,32.90
2018-11-20T14:36:51.990Z,33.70
2018-11-20T14:39:59.283Z,33.00
2018-11-20T14:43:06.567Z,33.10
2018-11-20T14:46:13.840Z,32.70
2018-11-20T14:49:21.362Z,33.20
2018-11-20T14:52:28.660Z,33.10
2018-11-20T14:55:36.562Z,33.30
2018-11-20T15:01:46.786Z,33.30
2018-11-20T15:04:54.442Z,32.90
2018-11-20T15:08:03.119Z,33.40
2018-11-20T15:11:10.506Z,33.50
2018-11-20T15:14:00.512Z,33.40
2018-11-20T15:17:08.564Z,33.80
2018-11-20T15:20:14.750Z,33.50
2018-11-20T15:23:15.070Z,33.80
2018-11-20T15:26:21.309Z,34.00
2018-11-20T15:29:21.365Z,33.90
2018-11-20T15:35:16.797Z,34.10
2018-11-20T15:38:10.548Z,33.80
2018-11-20T15:41:16.623Z,34.00
2018-11-20T15:44:17.690Z,33.80
2018-11-20T15:47:18.053Z,33.80
2018-11-20T15:50:17.882Z,33.70
2018-11-20T15:53:18.864Z,33.90
2018-11-20T15:56:18.872Z,34.00
2018-11-20T15:59:18.936Z,34.10
2018-11-20T16:02:18.444Z,34.00
2018-11-20T16:05:18.329Z,34.00
2018-11-20T16:08:18.713Z,33.50
2018-11-20T16:11:18.790Z,33.90
2018-11-20T16:14:19.927Z,34.00
2018-11-20T16:17:19.716Z,34.00
2018-11-20T16:20:21.174Z,34.00
2018-11-20T16:23:16.504Z,33.80
2018-11-20T16:26:11.957Z,34.10
2018-11-20T16:29:11.404Z,34.40
2018-11-20T16:35:17.644Z,34.50
2018-11-20T16:44:26.161Z,34.70
2018-11-20T16:50:33.962Z,34.70
2018-11-20T16:53:33.687Z,34.30
2018-11-20T16:56:33.576Z,34.40
2018-11-20T17:02:16.870Z,33.50
2018-11-20T17:05:17.203Z,33.40
2018-11-20T17:08:17.353Z,33.20
2018-11-20T17:11:23.421Z,32.70
2018-11-20T17:14:18.986Z,32.70
2018-11-20T17:17:22.187Z,33.50
2018-11-20T17:20:22.301Z,33.50
2018-11-20T17:26:19.155Z,33.70
2018-11-20T17:29:18.664Z,33.60
2018-11-20T17:32:19.865Z,33.50
2018-11-20T17:35:21.012Z,33.90
2018-11-20T17:38:16.226Z,33.70
2018-11-20T17:41:16.875Z,33.70
2018-11-20T17:44:22.696Z,34.00
2018-11-20T17:47:28.755Z,33.90
2018-11-20T17:50:21.191Z,34.00
2018-11-20T17:53:09.563Z,33.80
2018-11-20T17:56:16.830Z,34.50
2018-11-20T17:59:24.107Z,34.20
2018-11-20T18:02:29.418Z,34.40
2018-11-20T18:05:36.760Z,34.40
2018-11-20T18:08:44.024Z,34.80
2018-11-20T18:11:32.452Z,35.10
2018-11-20T18:14:39.713Z,35.60
2018-11-20T18:17:47.881Z,35.30
2018-11-20T18:20:54.579Z,35.20
2018-11-20T18:24:01.873Z,34.80
2018-11-20T18:27:09.216Z,35.00
2018-11-20T18:30:16.477Z,34.60
2018-11-20T18:33:23.768Z,34.70
2018-11-20T18:36:21.120Z,34.50
2018-11-20T18:39:09.652Z,34.80
2018-11-20T18:42:16.919Z,34.80
2018-11-20T18:45:24.264Z,35.00
2018-11-20T18:48:31.892Z,35.00
2018-11-20T18:51:39.138Z,35.00
2018-11-20T18:54:46.438Z,35.00
2018-11-20T18:57:53.816Z,35.10
2018-11-20T19:01:01.089Z,35.10
2018-11-20T19:04:00.440Z,35.20
2018-11-20T19:07:08.036Z,35.00
2018-11-20T19:10:15.759Z,35.10
2018-11-20T19:13:23.137Z,35.20
2018-11-20T19:16:30.814Z,34.80
2018-11-20T19:19:38.195Z,35.30
2018-11-20T19:22:46.261Z,34.80
2018-11-20T19:25:53.563Z,35.20
2018-11-20T19:29:00.852Z,35.40
2018-11-20T19:32:03.594Z,35.30
2018-11-20T19:35:10.861Z,35.40
2018-11-20T19:38:18.176Z,35.40
2018-11-20T19:41:25.855Z,35.40
2018-11-20T19:44:33.163Z,35.30
2018-11-20T19:47:40.705Z,35.00
2018-11-20T19:50:48.017Z,35.40
2018-11-20T19:53:55.331Z,35.80
2018-11-20T19:57:03.789Z,35.90
2018-11-20T20:00:11.131Z,35.50
2018-11-20T20:03:18.495Z,36.00
2018-11-20T20:06:26.274Z,35.70
2018-11-20T20:09:33.930Z,35.70
2018-11-20T20:12:41.210Z,35.80
2018-11-20T20:15:48.535Z,35.00
2018-11-20T20:18:56.256Z,35.90
2018-11-20T20:22:03.622Z,35.80
2018-11-20T20:25:10.936Z,35.60
2018-11-20T20:28:18.185Z,35.70
2018-11-20T20:31:26.261Z,36.30
2018-11-20T20:34:33.823Z,35.90
2018-11-20T20:37:41.110Z,35.70
2018-11-20T20:40:48.618Z,35.90
2018-11-20T20:43:56.752Z,35.90
2018-11-20T20:47:04.112Z,35.80
2018-11-20T20:50:11.395Z,35.90
2018-11-20T20:53:18.638Z,36.10
2018-11-20T20:56:16.845Z,36.20
2018-11-20T20:59:29.691Z,36.20
2018-11-20T21:02:36.984Z,36.30
2018-11-20T21:05:44.273Z,35.80
2018-11-20T21:08:52.598Z,36.40
2018-11-20T21:11:59.936Z,36.20
2018-11-20T21:15:07.261Z,36.40
2018-11-20T21:18:15.425Z,36.40
2018-11-20T21:21:22.811Z,36.30
2018-11-20T21:24:30.072Z,36.40
2018-11-20T21:27:37.370Z,35.90
2018-11-20T21:30:44.793Z,36.50
2018-11-20T21:33:52.075Z,36.40
2018-11-20T21:36:59.781Z,36.50
2018-11-20T21:40:07.858Z,36.30
2018-11-20T21:43:15.135Z,36.40
2018-11-20T21:46:22.416Z,36.30
2018-11-20T21:49:30.620Z,36.30
2018-11-20T21:52:37.905Z,36.30
2018-11-20T21:55:45.492Z,35.90
2018-11-20T21:58:52.760Z,36.50
2018-11-20T22:02:00.159Z,36.40
2018-11-20T22:05:07.664Z,36.40
2018-11-20T22:08:15.295Z,35.80
2018-11-20T22:11:23.925Z,36.50
2018-11-20T22:14:23.852Z,36.30
2018-11-20T22:17:31.683Z,36.20
2018-11-20T22:20:20.750Z,36.20
2018-11-20T22:23:28.729Z,36.70
2018-11-20T22:26:25.415Z,36.60
2018-11-20T22:29:20.173Z,36.40
2018-11-20T22:32:27.833Z,36.40
2018-11-20T22:35:30.038Z,35.90
2018-11-20T22:38:38.199Z,36.30
2018-11-20T22:41:46.136Z,36.30
2018-11-20T22:44:53.580Z,36.30
2018-11-20T22:48:01.054Z,36.30
2018-11-20T22:51:08.736Z,36.70
2018-11-20T22:54:16.034Z,36.60
2018-11-20T22:57:23.478Z,36.60
2018-11-20T23:00:30.766Z,36.60
2018-11-20T23:03:38.442Z,36.60
2018-11-20T23:06:45.071Z,36.70
2018-11-20T23:09:34.580Z,36.70
2018-11-20T23:12:23.792Z,36.70
2018-11-20T23:15:14.070Z,36.50
2018-11-20T23:18:03.861Z,36.80
2018-11-20T23:20:53.529Z,36.80
2018-11-20T23:23:43.172Z,36.50
2018-11-20T23:26:32.892Z,36.60
2018-11-20T23:29:23.315Z,37.20
2018-11-20T23:32:12.068Z,36.60
2018-11-20T23:35:01.274Z,36.50
2018-11-20T23:37:50.505Z,36.60
2018-11-20T23:40:39.719Z,36.60
2018-11-20T23:43:29.519Z,36.60
2018-11-20T23:46:18.952Z,36.10
2018-11-20T23:49:08.286Z,36.60
2018-11-20T23:51:56.878Z,36.60
2018-11-20T23:54:45.474Z,36.60
2018-11-20T23:57:34.205Z,36.60
